Latest Coastal Weather Observations for Bairnsdale

IDV60701

Issued at 8:15 am EDT Friday 24 October 2014 (issued every 10 minutes, with the page automatically refreshed every 10 minutes)

About coastal observations | Map of coastal stations | Coastal observations for VIC | Marine services | Other Formats
Station Details ID: 085279 Name: BAIRNSDALE AIRPORT Lat: -37.88 Lon: 147.57 Height: 49.4 m
Data from the previous 72 hours. | See also: Recent months at Bairnsdale
Date/Time
EDT
Temp

°C
Wind Pressure Rain
since 9am
mm
Weather Cloud Vis
km
Sea
Height
m
Swell
Dir
 
Speed
knots
Gust
knots
hPa Trend Height
m
Period
s
Dir
24/08:00am 15.8 ENE 6 7 1013.7 - 0.2 - Partly cloudy 10 - - - -
24/07:30am 15.3 NE 5 7 1014.0 - 0.2 - Cloudy 9 - - - -
24/07:00am 15.2 ENE 5 6 1014.1 - 0.2 - Cloudy - - - - -
24/06:30am 15.1 ENE 4 5 1014.3 - 0.2 - Cloudy - - - - -
24/06:00am 15.2 E 5 6 1014.5 - 0.2 - Cloudy - - - - -
24/05:30am 15.2 E 6 8 1014.4 - 0.2 - Cloudy - - - - -
24/05:00am 15.3 E 6 8 1014.6 - 0.2 - Cloudy - - - - -
24/04:30am 15.6 ESE 5 6 1014.9 - 0.2 - Partly cloudy - - - - -
24/04:00am 15.6 E 5 9 1015.1 - 0.2 - Partly cloudy - - - - -
24/03:55am 15.7 E 5 7 1015.2 - 0.2 - Partly cloudy - - - - -
24/03:30am 15.7 E 6 7 1015.6 - 0.2 - Partly cloudy - - - - -
24/03:29am 15.6 E 6 7 1015.6 - 0.2 - Partly cloudy - - - - -
24/03:00am 15.7 E 6 8 1016.0 - 0.2 - Cloudy - - - - -
24/02:30am 15.7 E 5 7 1016.6 - 0.2 - Partly cloudy - - - - -
24/02:13am 15.6 E 5 7 1016.8 - 0.2 - Partly cloudy - - - - -
24/02:09am 15.6 E 6 7 1016.9 - 0.2 - Partly cloudy - - - - -
24/02:00am 15.7 E 6 8 1017.0 - 0.2 - Partly cloudy - - - - -
24/01:30am 15.7 ENE 6 7 1017.7 - 0.2 - Cloudy - - - - -
24/01:00am 15.7 E 7 9 1018.1 - 0.2 - Partly cloudy - - - - -
24/12:30am 15.7 E 8 10 1018.6 - 0.2 - Cloudy - - - - -
24/12:00am 15.8 E 10 14 1018.9 - 0.0 - Cloudy - - - - -
 
Date/Time
EDT
Temp

°C
Wind Pressure Rain
since 9am
mm
Weather Cloud Vis
km
Sea
Height
m
Swell
Dir
 
Speed
knots
Gust
knots
hPa Trend Height
m
Period
s
Dir
23/11:30pm 15.8 E 10 12 1019.1 - 0.0 - Cloudy - - - - -
23/11:00pm 15.7 E 9 11 1019.4 - 0.0 - Cloudy - - - - -
23/10:30pm 15.6 E 9 12 1019.5 - 0.0 - Cloudy - - - - -
23/10:00pm 15.6 ESE 7 10 1019.8 - 0.0 - Cloudy - - - - -
23/09:30pm 15.5 ESE 7 10 1020.2 - 0.0 - Cloudy - - - - -
23/09:00pm 15.5 ESE 6 8 1020.3 - 0.0 - Mostly cloudy - - - - -
23/08:30pm 15.5 ESE 9 13 1020.3 - 0.0 - Cloudy - - - - -
23/08:00pm 15.5 ESE 9 13 1020.3 - 0.0 - Cloudy - - - - -
23/07:30pm 15.6 E 10 14 1020.2 - 0.0 - Cloudy - - - - -
23/07:00pm 15.4 E 10 13 1020.0 - 0.0 - Cloudy - - - - -
23/06:30pm 15.5 ESE 11 14 1020.0 - 0.0 - Cloudy - - - - -
23/06:00pm 15.6 ESE 10 13 1020.1 - 0.0 - Cloudy - - - - -
23/05:30pm 15.8 ESE 12 15 1019.9 - 0.0 - Cloudy - - - - -
23/05:00pm 16.4 ESE 13 18 1019.7 - 0.0 - Cloudy - - - - -
23/04:30pm 15.9 ESE 15 20 1019.7 - 0.0 - Cloudy - - - - -
23/04:00pm 16.2 ESE 13 18 1019.7 - 0.0 - Cloudy - - - - -
23/03:30pm 16.3 ESE 15 19 1019.9 - 0.0 - Cloudy - - - - -
23/03:00pm 16.5 ESE 14 21 1019.9 - 0.0 - Mostly cloudy - - - - -
23/02:30pm 16.5 ESE 13 17 1020.2 - 0.0 - Cloudy - - - - -
23/02:00pm 16.7 ESE 13 17 1020.4 - 0.0 - Cloudy - - - - -
23/01:30pm 16.8 ESE 11 14 1020.5 - 0.0 - Cloudy - - - - -
23/01:07pm 16.7 ESE 10 13 1020.7 - 0.0 - Cloudy 5 - - - -
23/01:00pm 16.9 SE 10 13 1020.6 - 0.0 - Partly cloudy - - - - -
23/12:30pm 16.9 ESE 10 14 1020.8 - 0.0 - Partly cloudy - - - - -
23/12:00pm 16.4 SE 9 11 1020.9 - 0.0 - Cloudy - - - - -
23/11:30am 16.6 SSE 9 11 1021.1 - 0.0 - Partly cloudy - - - - -
23/11:13am 16.8 SSE 8 10 1021.1 - 0.0 - Partly cloudy 5 - - - -
23/11:07am 16.9 SSE 8 10 1021.1 - 0.0 - Cloudy 8 - - - -
23/11:00am 17.1 SSE 7 9 1021.1 - 0.0 - Partly cloudy 10 - - - -
23/10:41am 17.3 SSE 8 10 1021.0 - 0.0 - Partly cloudy 10 - - - -
23/10:30am 17.7 SSE 7 9 1021.0 - 0.0 - Partly cloudy 10 - - - -
23/10:00am 17.1 SW 5 7 1020.7 - 0.0 - Partly cloudy 10 - - - -
23/09:55am 17.0 SW 6 7 1020.7 - 0.0 - Partly cloudy 10 - - - -
23/09:52am 17.1 SW 6 7 1020.7 - 0.0 - Cloudy 10 - - - -
23/09:30am 17.3 W 6 8 1020.5 - 0.0 - Cloudy 10 - - - -
23/09:00am 16.7 WSW 7 10 1020.4 - 0.0 - Cloudy 10 - - - -
23/08:30am 16.2 WSW 9 12 1020.2 - 0.0 - Cloudy 10 - - - -
23/08:00am 15.9 WSW 8 13 1019.9 - 0.0 - Partly cloudy 10 - - - -
23/07:48am 15.6 SW 10 15 1019.7 - 0.0 - Partly cloudy - - - - -
23/07:30am 15.5 SW 14 18 1019.2 - 0.0 - - - - - - -
23/07:00am 15.1 SW 15 18 1018.4 - 0.0 - - - - - - -
23/06:30am 15.7 SSW 9 13 1017.8 - 0.0 - - 10 - - - -
23/06:00am 16.2 S 11 16 1017.4 - 0.0 - Mostly cloudy 10 - - - -
23/05:30am 17.3 WNW 8 10 1016.3 - 0.0 - - 10 - - - -
23/05:00am 18.1 N 8 10 1015.4 - 0.0 - Partly cloudy 10 - - - -
23/04:30am 17.8 NNW 6 9 1015.7 - 0.0 - - 10 - - - -
23/04:00am 18.5 ESE 9 11 1015.4 - 0.0 - Partly cloudy 10 - - - -
23/03:30am 18.7 SW 12 17 1017.1 - 0.0 - Partly cloudy 10 - - - -
23/03:00am 18.8 WSW 12 18 1017.0 - 0.0 - Cloudy 10 - - - -
23/02:58am 18.8 WSW 12 18 1016.8 - 0.0 - Partly cloudy 10 - - - -
23/02:39am 18.4 WSW 13 17 1016.9 - 0.0 - Partly cloudy 2 - - - -
23/02:30am 17.3 W 8 12 1017.1 - 0.0 - Partly cloudy 10 - - - -
23/02:00am 16.0 W 6 8 1016.1 - 0.0 - - 10 - - - -
23/01:30am 16.7 SW 7 10 1016.1 - 0.0 - - 10 - - - -
23/01:00am 17.5 NW 4 5 1015.7 - 0.0 - - 10 - - - -
23/12:30am 17.7 NNW 5 6 1015.5 - 0.0 - - 10 - - - -
23/12:00am 16.6 NW 2 4 1015.6 - 0.0 - Mostly cloudy 10 - - - -
 
Date/Time
EDT
Temp

°C
Wind Pressure Rain
since 9am
mm
Weather Cloud Vis
km
Sea
Height
m
Swell
Dir
 
Speed
knots
Gust
knots
hPa Trend Height
m
Period
s
Dir
22/11:30pm 17.7 NE 3 4 1015.8 - 0.0 - - 10 - - - -
22/11:00pm 18.6 NNE 6 8 1015.7 - 0.0 - Partly cloudy 10 - - - -
22/10:30pm 19.1 ESE 5 7 1016.0 - 0.0 - - 10 - - - -
22/10:00pm 19.2 ESE 4 5 1016.3 - 0.0 - - 10 - - - -
22/09:30pm 19.1 NE 6 7 1016.1 - 0.0 - - 10 - - - -
22/09:00pm 19.6 ENE 6 7 1016.2 - 0.0 - - 10 - - - -
22/08:30pm 19.5 E 5 6 1016.1 - 0.0 - - 10 - - - -
22/08:00pm 20.0 E 6 7 1015.8 - 0.0 - - 10 - - - -
22/07:30pm 20.9 E 7 7 1015.8 - 0.0 - - 10 - - - -
22/07:00pm 22.4 E 6 7 1015.6 - 0.0 - - 10 - - - -
22/06:30pm 23.7 E 9 12 1015.6 - 0.0 - - 10 - - - -
22/06:00pm 25.1 E 7 10 1015.5 - 0.0 - - 10 - - - -
22/05:30pm 25.6 E 9 12 1015.5 - 0.0 - - 10 - - - -
22/05:00pm 26.1 ESE 8 11 1015.8 - 0.0 - - 10 - - - -
22/04:30pm 26.7 E 9 11 1015.8 - 0.0 - - 10 - - - -
22/04:00pm 27.6 E 8 10 1016.0 - 0.0 - - 10 - - - -
22/03:30pm 28.1 E 8 10 1016.2 - 0.0 - - 10 - - - -
22/03:00pm 27.8 E 8 11 1016.5 - 0.0 - - 10 - - - -
22/02:30pm 27.8 ESE 9 13 1016.9 - 0.0 - - 10 - - - -
22/02:00pm 27.9 NNE 6 10 1017.2 - 0.0 - - 10 - - - -
22/01:30pm 28.8 NNW 5 9 1017.6 - 0.0 - - 10 - - - -
22/01:00pm 27.9 N 4 8 1017.9 - 0.0 - - 10 - - - -
22/12:30pm 27.1 WNW 5 8 1018.4 - 0.0 - - 10 - - - -
22/12:00pm 25.9 W 3 5 1018.8 - 0.0 - - 10 - - - -
22/11:30am 25.7 NE 4 6 1019.0 - 0.0 - - 10 - - - -
22/11:00am 23.7 NE 5 7 1019.3 - 0.0 - - 10 - - - -
22/10:30am 22.5 NE 5 6 1019.8 - 0.0 - - 10 - - - -
22/10:00am 20.8 NE 4 7 1020.2 - 0.0 - - 10 - - - -
22/09:30am 18.6 NE 4 5 1020.4 - 0.0 - - 10 - - - -
22/09:00am 16.5 ENE 3 4 1020.5 - 0.0 - - 10 - - - -
22/08:30am 14.0 CALM 0 0 1020.9 - 0.0 - - 10 - - - -
22/08:00am 12.3 NNE 3 4 1021.1 - 0.0 - - 10 - - - -
22/07:36am 11.1 NNW 1 3 1021.0 - 0.0 - Partly cloudy 10 - - - -
22/07:30am 11.0 NNW 2 3 1021.1 - 0.0 - Partly cloudy 10 - - - -
22/07:00am 9.4 CALM 0 0 1021.2 - 0.0 - Partly cloudy 1 - - - -
22/06:30am 9.5 CALM 0 0 1021.2 - 0.0 - - 0.7 - - - -
22/06:26am 9.4 CALM 0 0 1021.2 - 0.0 - Partly cloudy 2 - - - -
22/06:17am 7.7 CALM 0 0 1021.1 - 0.0 - Partly cloudy - - - - -
22/06:02am 7.9 W 3 3 1021.1 - 0.0 - Partly cloudy - - - - -
22/06:00am 7.8 W 2 3 1021.0 - 0.0 - Partly cloudy - - - - -
22/05:30am 6.6 CALM 0 0 1020.8 - 0.0 - - - - - - -
22/05:00am 7.9 CALM 0 0 1020.8 - 0.0 - - - - - - -
22/04:30am 7.3 CALM 0 0 1021.0 - 0.0 - - - - - - -
22/04:00am 8.2 CALM 0 0 1021.3 - 0.0 - - - - - - -
22/03:30am 9.0 CALM 0 0 1021.6 - 0.0 - - - - - - -
22/03:00am 10.0 NE 4 4 1022.1 - 0.0 - - - - - - -
22/02:30am 10.3 NNW 2 4 1022.5 - 0.0 - - - - - - -
22/02:00am 10.7 W 3 4 1022.8 - 0.0 - - - - - - -
22/01:30am 10.9 W 4 6 1023.2 - 0.0 - - - - - - -
22/01:00am 10.6 WNW 4 7 1023.6 - 0.0 - - - - - - -
22/12:30am 10.7 W 5 7 1024.0 - 0.0 - - - - - - -
22/12:00am 10.1 WNW 5 7 1024.4 - 0.0 - - - - - - -
 
Date/Time
EDT
Temp

°C
Wind Pressure Rain
since 9am
mm
Weather Cloud Vis
km
Sea
Height
m
Swell
Dir
 
Speed
knots
Gust
knots
hPa Trend Height
m
Period
s
Dir
21/11:30pm 11.4 W 3 4 1024.5 - 0.0 - - - - - - -
21/11:00pm 11.4 WNW 6 8 1024.8 - 0.0 - - - - - - -
21/10:30pm 10.8 WNW 5 6 1024.9 - 0.0 - - 10 - - - -
21/10:00pm 11.0 W 4 5 1025.0 - 0.0 - - 10 - - - -
21/09:30pm 10.9 WSW 4 5 1025.1 - 0.0 - - 10 - - - -
21/09:00pm 11.5 WSW 6 6 1025.0 - 0.0 - - 10 - - - -
21/08:30pm 11.5 SW 5 6 1025.0 - 0.0 - - 10 - - - -
21/08:00pm 12.6 SSW 5 5 1024.8 - 0.0 - - 10 - - - -
21/07:30pm 15.3 S 5 6 1024.8 - 0.0 - - 10 - - - -
21/07:00pm 16.8 SSE 6 7 1024.8 - 0.0 - - 10 - - - -
21/06:30pm 17.3 SE 8 9 1024.7 - 0.0 - - 10 - - - -
21/06:00pm 17.8 SE 9 11 1024.9 - 0.0 - - 10 - - - -
21/05:30pm 18.8 ESE 8 10 1024.9 - 0.0 - - 10 - - - -
21/05:00pm 19.2 ESE 9 12 1025.1 - 0.0 - - 10 - - - -
21/04:30pm 19.2 ESE 10 13 1025.3 - 0.0 - - 10 - - - -
21/04:00pm 19.3 SE 11 15 1025.5 - 0.0 - - 10 - - - -
21/03:30pm 19.7 SE 10 13 1025.8 - 0.0 - - 10 - - - -
21/03:00pm 19.8 ESE 9 13 1026.1 - 0.0 - - 10 - - - -
21/02:30pm 19.2 ESE 9 13 1026.6 - 0.0 - - 10 - - - -
21/02:00pm 19.3 ESE 8 14 1027.0 - 0.0 - - 10 - - - -
21/01:30pm 19.7 E 6 16 1027.4 - 0.0 - - 10 - - - -
21/01:00pm 18.8 ENE 5 8 1027.7 - 0.0 - - 10 - - - -
21/12:30pm 18.4 ENE 4 9 1028.1 - 0.0 - - 10 - - - -
21/12:00pm 17.5 NE 5 10 1028.6 - 0.0 - - 10 - - - -
21/11:30am 16.9 E 5 9 1028.9 - 0.0 - - 10 - - - -
21/11:00am 16.4 ENE 5 9 1029.2 - 0.0 - - 10 - - - -
21/10:30am 16.0 NNE 5 7 1029.5 - 0.0 - - 10 - - - -
21/10:00am 14.5 NE 5 7 1029.7 - 0.0 - - 10 - - - -
21/09:30am 13.7 NE 6 7 1029.7 - 0.0 - - 10 - - - -
21/09:00am 12.4 ENE 7 10 1029.7 - 0.0 - - 10 - - - -
21/08:30am 12.9 E 6 8 1029.6 - 0.0 - - 10 - - - -

Other Formats:

Comma delimited format used in spreadsheet applications
http://www.bom.gov.au/fwo/IDV60701/IDV60701.94912.axf

JavaScript Object Notation format (JSON) in row-major order
http://www.bom.gov.au/fwo/IDV60701/IDV60701.94912.json